Pagina principale
METAR-TAF:

METAR-TAF

Aeroporti :

Aeroporto di Verona-Villafranca

Verona, Italia

latitudine: 45-23N, longitudine: 010-52E, altezza: 67 m

Osservazione

Il bollettino è stato emesso 31 minuti fa, alle 01:20 UTC
Vento 2 kt da direzioni variabili
Temperature 18°C
Umidità 94%
Pressione 1014 hPa
Visibilità 10 km o più
Nubi sparse ad un'altezza di 5000 ft
Nuvoloso ad un'altezza di 9000 ft
pioggia debole,

METAR: LIPX 280120Z VRB02KT 9999 -RA SCT050 BKN090 18/17 Q1014

Ora: 03:51 (01:51 UTC)

Previsione

Il bollettino è stato emesso 2 ore e 51 minuti fa, alle 23:00 UTC
Previsione valida dal 28 alle 00 UTC al 28 alle 24 UTC
Vento 5 kt da direzioni variabili
Visibilità 10 km o più
Nubi sparse ad un'altezza di 4000 ft
Temporaneamente
dal 28 alle 00 UTC al 28 alle 03 UTC
rovesci di pioggia
Temporaneamente
dal 28 alle 09 UTC al 28 alle 15 UTC
temporale, pioggia,

TAF: LIPX 272300Z 2800/2824 VRB05KT 9999 SCT040 TEMPO 2800/2803 SHRA TEMPO 2809/2815 TSRA

Osservazioni e previsioni meteorologiche di più di 4000 aeroporti (messaggi METAR e TAF).

Le stazioni disponibili sono rappresentate dai dischi gialli e rossi sulla carta.

Puntare il mouse per vedere il nome della stazione.

Clicca sopra per visualizzare le osservazioni e previsioni meteorologiche.

Per cambiare la mappa : fare clic sui pulsanti verdi con una croce nera per ingrandire, il pulsante verde con un trattino per diminuire, o sulla freccia verde per le mappe adiacenti.


METAR-TAF: